KUNV/SCE METAR and TAF weather

Enter ICAO airport designator
Station Type Date Time Source
KUNV METAR 2021/05/15 02:35 UTC NOAA

KUNV 150235Z AUTO 27003KT 10SM CLR 13/00 A3024 RMK AO2


Station Type Date Time Source
KUNV Decoded METAR 2021/05/15 02:35 UTC NOAA

State College, University Park Airport, PA, United States (KUNV) 40-51N 077-51W
May 14, 2021 - 10:35 PM EDT / 2021.05.15 0235 UTC
Wind: from the W (270 degrees) at 3 MPH (3 KT):0
Visibility: 10 mile(s):0
Sky conditions: clear
Temperature: 55 F (13 C)
Dew Point: 32 F (0 C)
Relative Humidity: 40%
Pressure (altimeter): 30.24 in. Hg (1024 hPa)
ob: KUNV 150235Z AUTO 27003KT 10SM CLR 13/00 A3024 RMK AO2
cycle: 2

Station Type Date Time Source
KUNV TAF 2021/05/14 22:46 UTC NOAA

TAF
AMD KUNV 142144Z 1422/1518 VRB03KT P6SM SCT070 BKN090
FM150100 00000KT P6SM SKC
FM151400 22003KT P6SM SCT090

Example: see airport list